Time;durP1;ratioP1;P1;durP2;ratioP2;P2;SDS_P1;SDS_P2;PMS_P1;PMS_P2;Temp;Humidity;BMP_temperature;BMP_pressure;BME280_temperature;BME280_humidity;BME280_pressure;Samples;Min_cycle;Max_cycle;Signal;HPM_P1;HPM_P2
2021/12/17 00:03:49;;;;;;;32.58;30.50;;;0.40;99.90;;;;;;4161133;28;20059;-52
2021/12/17 00:06:11;;;;;;;32.90;31.10;;;0.50;99.90;;;;;;4159765;28;20053;-52
2021/12/17 00:08:14;;;;;;;32.30;30.17;;;0.50;99.90;;;;;;4160394;28;20049;-51
2021/12/17 00:10:17;;;;;;;;;;;0.70;99.90;;;;;;4154049;28;20101;-51
2021/12/17 00:12:22;;;;;;;31.30;29.27;;;0.60;99.90;;;;;;4148911;28;19945;-51
2021/12/17 00:14:27;;;;;;;32.08;30.23;;;0.50;99.90;;;;;;4160471;28;20049;-50
2021/12/17 00:16:35;;;;;;;29.35;27.73;;;0.60;99.90;;;;;;4158485;28;20068;-51
2021/12/17 00:18:51;;;;;;;28.98;26.92;;;0.60;99.90;;;;;;4160828;28;20037;-51
2021/12/17 00:49:26;;;;;;;17.42;16.42;;;1.50;99.90;;;;;;4161425;28;20113;-50
2021/12/17 00:53:52;;;;;;;23.40;22.48;;;1.20;99.90;;;;;;4160465;28;20060;-51
2021/12/17 00:55:54;;;;;;;22.23;21.30;;;1.90;99.90;;;;;;4164169;28;20037;-51
2021/12/17 00:57:56;;;;;;;13.18;12.75;;;1.90;99.90;;;;;;4162402;28;20100;-52
2021/12/17 00:59:58;;;;;;;16.23;15.32;;;1.90;99.90;;;;;;4163260;28;20525;-51
2021/12/17 01:02:04;;;;;;;21.75;20.45;;;1.60;99.90;;;;;;4160967;28;20148;-51
2021/12/17 01:04:07;;;;;;;20.92;19.83;;;1.20;99.90;;;;;;4164332;28;20077;-51
2021/12/17 01:06:10;;;;;;;18.08;17.42;;;1.00;99.90;;;;;;4161904;28;20060;-51
2021/12/17 01:08:12;;;;;;;15.10;14.60;;;1.20;99.90;;;;;;4159373;28;20068;-52
2021/12/17 01:10:25;;;;;;;20.60;18.88;;;1.50;99.90;;;;;;4162018;28;20041;-52
2021/12/17 01:12:27;;;;;;;18.33;17.52;;;1.40;99.90;;;;;;4151730;28;20069;-51
2021/12/17 01:14:31;;;;;;;12.40;12.05;;;1.10;99.90;;;;;;4162785;28;20047;-51
2021/12/17 01:16:33;;;;;;;9.05;8.85;;;1.50;99.90;;;;;;4162394;28;20045;-51
2021/12/17 01:18:50;;;;;;;10.13;9.82;;;2.00;99.90;;;;;;4161492;28;20038;-50
2021/12/17 01:23:45;;;;;;;7.95;7.75;;;2.30;99.90;;;;;;4164211;28;20041;-51
2021/12/17 01:37:09;;;;;;;5.47;5.28;;;4.30;99.90;;;;;;4149980;28;20045;-51
2021/12/17 01:43:54;;;;;;;6.10;6.00;;;4.50;99.90;;;;;;4159483;28;20096;-51
2021/12/17 01:45:57;;;;;;;5.32;5.13;;;4.50;99.90;;;;;;4160051;28;20379;-50
2021/12/17 01:48:02;;;;;;;4.82;4.57;;;4.40;99.90;;;;;;4163703;28;20037;-52
2021/12/17 01:59:35;;;;;;;4.97;4.75;;;5.00;99.90;;;;;;4157048;28;20041;-52
2021/12/17 02:01:37;;;;;;;4.10;4.05;;;5.40;99.90;;;;;;4151262;28;20037;-51
2021/12/17 02:03:40;;;;;;;;;;;5.50;99.90;;;;;;4163101;28;20033;-52
2021/12/17 02:05:44;;;;;;;3.97;3.97;;;5.50;99.90;;;;;;4159921;28;20355;-52
2021/12/17 02:07:48;;;;;;;4.63;4.63;;;5.50;99.90;;;;;;4162704;28;20288;-52
2021/12/17 02:12:20;;;;;;;4.93;4.82;;;5.40;99.90;;;;;;4157882;28;20450;-52
2021/12/17 02:28:45;;;;;;;4.68;4.57;;;5.50;99.90;;;;;;4162912;28;20049;-49
2021/12/17 02:32:49;;;;;;;4.45;4.45;;;5.50;99.90;;;;;;4145223;28;20510;-52
2021/12/17 02:37:09;;;;;;;3.88;3.88;;;5.70;99.90;;;;;;4162184;28;20034;-51
2021/12/17 02:45:56;;;;;;;4.57;4.47;;;5.10;99.90;;;;;;4150773;28;20029;-50
2021/12/17 02:48:05;;;;;;;4.70;4.60;;;5.20;99.90;;;;;;4162358;28;20045;-51
2021/12/17 02:50:11;;;;;;;4.07;4.05;;;5.40;99.90;;;;;;4157771;28;20133;-52
2021/12/17 02:52:14;;;;;;;4.70;4.60;;;5.40;99.90;;;;;;4162218;28;20493;-52
2021/12/17 02:54:16;;;;;;;2.92;2.92;;;5.30;99.90;;;;;;4160118;28;20044;-52
2021/12/17 02:56:18;;;;;;;5.10;5.00;;;5.10;99.90;;;;;;4159639;28;20540;-52
2021/12/17 02:58:24;;;;;;;4.82;4.72;;;4.90;99.90;;;;;;4159181;28;20053;-51
2021/12/17 03:00:33;;;;;;;4.47;4.28;;;4.80;99.90;;;;;;4164100;28;20034;-51
2021/12/17 03:02:46;;;;;;;4.55;4.45;;;4.80;99.90;;;;;;4158736;28;20112;-50
2021/12/17 03:04:49;;;;;;;4.75;4.63;;;4.90;99.90;;;;;;4162812;28;20048;-52
2021/12/17 03:06:51;;;;;;;5.05;4.95;;;4.90;99.90;;;;;;4160396;28;20059;-51
2021/12/17 03:08:53;;;;;;;3.47;3.47;;;5.10;99.90;;;;;;4146895;28;20042;-52
2021/12/17 03:10:58;;;;;;;4.32;4.30;;;5.60;99.90;;;;;;4155890;28;20033;-51
2021/12/17 03:13:03;;;;;;;4.75;4.75;;;5.60;99.90;;;;;;4169575;28;20627;-50
2021/12/17 03:15:17;;;;;;;4.05;4.05;;;5.70;99.90;;;;;;4161262;28;20032;-51
2021/12/17 03:18:27;;;;;;;4.95;4.85;;;5.50;99.90;;;;;;4145415;28;20108;-51
2021/12/17 03:24:22;;;;;;;5.50;5.40;;;5.20;99.90;;;;;;4162616;28;20079;-50
2021/12/17 03:26:26;;;;;;;4.55;4.43;;;5.10;99.90;;;;;;4161170;28;20041;-51
2021/12/17 03:28:29;;;;;;;4.88;4.78;;;5.10;99.90;;;;;;4159678;28;20091;-52
2021/12/17 03:30:32;;;;;;;4.88;4.78;;;5.20;99.90;;;;;;4159491;28;20041;-51
2021/12/17 03:32:34;;;;;;;4.57;4.50;;;5.20;99.90;;;;;;4162002;28;20091;-51
2021/12/17 03:34:36;;;;;;;3.95;3.95;;;5.00;99.90;;;;;;4158664;28;20037;-52
2021/12/17 03:36:38;;;;;;;4.45;4.45;;;5.10;99.90;;;;;;4173012;28;20044;-51
2021/12/17 03:38:43;;;;;;;5.30;5.20;;;4.90;99.90;;;;;;4166180;28;20737;-50
2021/12/17 03:40:46;;;;;;;4.03;4.03;;;4.90;99.90;;;;;;4161459;28;20440;-52
2021/12/17 03:42:51;;;;;;;5.38;5.28;;;5.00;99.90;;;;;;4155826;28;20084;-52
2021/12/17 03:44:53;;;;;;;5.35;5.25;;;4.70;99.90;;;;;;4153592;28;20437;-51
2021/12/17 03:46:55;;;;;;;5.07;4.97;;;4.60;99.90;;;;;;4155463;28;20095;-51
2021/12/17 03:48:57;;;;;;;4.20;4.20;;;4.70;99.90;;;;;;4160153;28;20048;-50
2021/12/17 03:51:00;;;;;;;4.70;4.70;;;4.90;99.90;;;;;;4159417;28;20034;-51
2021/12/17 03:53:04;;;;;;;4.63;4.63;;;4.90;99.90;;;;;;4161509;28;20045;-50
2021/12/17 03:55:06;;;;;;;4.05;4.05;;;4.90;99.90;;;;;;4157890;28;20037;-51
2021/12/17 03:57:12;;;;;;;4.30;4.20;;;5.00;99.90;;;;;;4162433;28;20037;-51
2021/12/17 03:59:14;;;;;;;4.35;4.25;;;5.10;99.90;;;;;;4161068;28;20033;-51
2021/12/17 04:01:16;;;;;;;4.38;4.28;;;5.20;99.90;;;;;;4161559;28;20042;-51
2021/12/17 04:03:18;;;;;;;4.05;4.05;;;5.10;99.90;;;;;;4160281;28;20037;-51
2021/12/17 04:05:21;;;;;;;4.60;4.50;;;5.00;99.90;;;;;;4146576;28;20053;-51
2021/12/17 04:07:23;;;;;;;3.83;3.75;;;4.80;99.90;;;;;;4159441;28;20041;-51
2021/12/17 04:09:29;;;;;;;4.00;4.00;;;4.80;99.90;;;;;;4146066;28;20494;-50
2021/12/17 04:11:32;;;;;;;3.95;3.85;;;4.70;99.90;;;;;;4159355;28;20052;-50
2021/12/17 04:13:37;;;;;;;;;;;4.90;99.90;;;;;;4154155;28;20034;-49
2021/12/17 04:15:39;;;;;;;4.50;4.40;;;4.90;99.90;;;;;;4158720;28;20007;-51
2021/12/17 04:17:46;;;;;;;4.50;4.40;;;5.00;99.90;;;;;;4161269;28;20053;-48
2021/12/17 04:19:48;;;;;;;4.97;4.88;;;4.90;99.90;;;;;;4157702;28;20037;-49
2021/12/17 04:21:50;;;;;;;4.28;4.18;;;4.90;99.90;;;;;;4161412;28;20437;-52
2021/12/17 04:23:56;;;;;;;5.43;5.13;;;4.90;99.90;;;;;;4162286;28;20049;-51
2021/12/17 04:25:59;;;;;;;3.90;3.90;;;5.00;99.90;;;;;;4164763;28;20422;-50
2021/12/17 04:28:01;;;;;;;3.90;3.90;;;5.00;99.90;;;;;;4163941;28;20095;-51
2021/12/17 04:30:04;;;;;;;4.65;4.65;;;5.00;99.90;;;;;;4163981;28;20045;-52
2021/12/17 04:32:06;;;;;;;4.35;4.35;;;5.10;99.90;;;;;;4163204;28;20038;-51
2021/12/17 04:34:11;;;;;;;3.80;3.80;;;5.00;99.90;;;;;;4163487;28;20043;-52
2021/12/17 04:36:20;;;;;;;4.78;4.68;;;4.90;99.90;;;;;;4161629;28;20041;-48
2021/12/17 04:38:23;;;;;;;3.50;3.50;;;4.80;99.90;;;;;;4162889;28;20120;-51
2021/12/17 04:40:26;;;;;;;;;;;4.90;99.90;;;;;;4169043;28;20061;-52
2021/12/17 04:42:43;;;;;;;4.60;4.50;;;5.10;99.90;;;;;;4169925;28;19933;-50
2021/12/17 04:44:52;;;;;;;4.35;4.35;;;5.20;99.90;;;;;;4162970;28;20456;-52
2021/12/17 04:58:30;;;;;;;4.30;4.20;;;5.20;99.90;;;;;;4156180;28;20038;-49
2021/12/17 05:00:34;;;;;;;3.90;3.90;;;4.80;99.90;;;;;;4164055;28;20041;-51
2021/12/17 05:02:42;;;;;;;4.07;4.07;;;4.80;99.90;;;;;;4162394;28;20038;-51
2021/12/17 05:04:44;;;;;;;4.03;4.03;;;5.00;99.90;;;;;;4164343;28;20108;-50
2021/12/17 05:06:47;;;;;;;4.18;4.18;;;5.10;99.90;;;;;;4161371;28;20049;-51
2021/12/17 05:08:55;;;;;;;4.45;4.45;;;5.20;99.90;;;;;;4163206;28;20037;-51
2021/12/17 05:20:40;;;;;;;3.78;3.78;;;5.20;99.90;;;;;;4160627;28;20041;-51
2021/12/17 05:22:43;;;;;;;6.72;6.43;;;5.20;99.90;;;;;;4157762;28;20033;-51
2021/12/17 05:24:46;;;;;;;3.72;3.72;;;5.10;99.90;;;;;;4160510;28;20038;-51
2021/12/17 05:26:48;;;;;;;;;;;4.70;99.90;;;;;;4159983;28;20041;-51
2021/12/17 05:28:52;;;;;;;4.57;4.47;;;4.50;99.90;;;;;;4163870;28;19971;-51
2021/12/17 05:30:56;;;;;;;4.88;4.88;;;4.20;99.90;;;;;;4161805;28;20076;-51
2021/12/17 05:32:59;;;;;;;4.90;4.80;;;4.20;99.90;;;;;;4163858;28;20103;-51
2021/12/17 05:35:01;;;;;;;;;;;4.40;99.90;;;;;;4163478;28;20156;-51
2021/12/17 05:37:03;;;;;;;6.07;5.88;;;4.60;99.90;;;;;;4163622;28;19932;-51
2021/12/17 05:39:09;;;;;;;5.85;5.75;;;4.60;99.90;;;;;;4163373;28;20048;-51
2021/12/17 05:41:11;;;;;;;6.13;5.97;;;4.30;99.90;;;;;;4163029;28;20064;-50
2021/12/17 05:43:15;;;;;;;4.95;4.82;;;4.20;99.90;;;;;;4159195;28;20057;-52
2021/12/17 05:45:37;;;;;;;10.98;10.88;;;4.20;99.90;;;;;;4159681;28;20118;-51
2021/12/17 05:47:39;;;;;;;11.50;11.38;;;4.00;99.90;;;;;;4152589;28;20104;-50
2021/12/17 05:49:41;;;;;;;13.18;13.07;;;3.90;99.90;;;;;;4164275;28;20060;-51
2021/12/17 05:51:43;;;;;;;13.20;13.10;;;3.70;99.90;;;;;;4160523;28;20038;-51
2021/12/17 05:53:45;;;;;;;12.10;12.00;;;3.70;99.90;;;;;;4161390;28;20140;-50
2021/12/17 05:55:47;;;;;;;13.60;13.50;;;3.90;99.90;;;;;;4158925;28;20034;-51
2021/12/17 05:57:49;;;;;;;8.25;8.15;;;4.00;99.90;;;;;;4163697;28;20041;-51
2021/12/17 05:59:52;;;;;;;12.52;12.43;;;4.10;99.90;;;;;;4160407;28;20046;-51
2021/12/17 06:01:55;;;;;;;7.97;7.47;;;4.10;99.90;;;;;;4167883;28;20052;-50
2021/12/17 06:03:57;;;;;;;7.53;7.43;;;4.20;99.90;;;;;;4172468;28;20038;-50
2021/12/17 06:05:59;;;;;;;10.10;9.82;;;4.10;99.90;;;;;;4153868;28;20073;-51
2021/12/17 06:08:02;;;;;;;7.88;7.28;;;4.20;99.90;;;;;;4152837;28;20490;-51
2021/12/17 06:10:05;;;;;;;7.10;7.00;;;4.20;99.90;;;;;;4162653;28;20034;-51
2021/12/17 06:12:08;;;;;;;5.35;5.15;;;4.10;99.90;;;;;;4156908;28;20144;-49
2021/12/17 06:14:10;;;;;;;7.22;7.13;;;4.00;99.90;;;;;;4163016;28;20033;-51
2021/12/17 06:16:12;;;;;;;10.27;10.00;;;3.70;99.90;;;;;;4162728;28;20038;-51
2021/12/17 06:18:14;;;;;;;6.25;6.15;;;3.60;99.90;;;;;;4161947;28;20088;-51
2021/12/17 06:20:19;;;;;;;13.23;12.90;;;3.70;99.90;;;;;;4160103;28;20041;-50
2021/12/17 06:22:21;;;;;;;12.55;12.32;;;3.60;99.90;;;;;;4159148;28;20103;-49
2021/12/17 06:24:23;;;;;;;16.48;15.98;;;3.50;99.90;;;;;;4158325;28;20038;-51
2021/12/17 06:26:25;;;;;;;11.52;11.15;;;3.40;99.90;;;;;;4159537;28;20038;-48
2021/12/17 06:28:28;;;;;;;11.52;11.02;;;3.30;99.90;;;;;;4162077;28;20448;-47
2021/12/17 06:30:30;;;;;;;11.63;11.13;;;3.30;99.90;;;;;;4164481;28;20049;-51
2021/12/17 06:32:32;;;;;;;17.25;16.40;;;3.30;99.90;;;;;;4163386;28;20041;-50
2021/12/17 06:34:34;;;;;;;13.43;13.02;;;3.30;99.90;;;;;;4163109;28;20048;-51
2021/12/17 06:36:37;;;;;;;;;;;3.40;99.90;;;;;;4163322;28;20038;-50
2021/12/17 06:38:39;;;;;;;15.77;15.48;;;3.60;99.90;;;;;;4161465;28;19925;-50
2021/12/17 06:40:41;;;;;;;13.95;13.75;;;3.80;99.90;;;;;;4163735;28;20822;-50
2021/12/17 06:42:45;;;;;;;9.75;9.65;;;4.00;99.90;;;;;;4161810;28;20053;-51
2021/12/17 06:44:48;;;;;;;11.38;10.98;;;3.90;99.90;;;;;;4147786;28;20128;-50
2021/12/17 06:49:09;;;;;;;16.40;15.27;;;4.00;99.90;;;;;;4158532;28;20061;-51
2021/12/17 06:56:46;;;;;;;14.55;13.38;;;4.90;99.90;;;;;;4160749;28;20030;-50
2021/12/17 07:01:01;;;;;;;13.13;12.35;;;4.00;99.90;;;;;;4162778;28;20042;-46
2021/12/17 07:05:56;;;;;;;10.10;9.70;;;4.00;99.90;;;;;;4150906;28;20579;-47
2021/12/17 07:10:18;;;;;;;9.35;9.13;;;4.20;99.90;;;;;;4149748;28;20045;-48
2021/12/17 07:21:41;;;;;;;12.05;11.82;;;3.80;99.90;;;;;;4158729;28;20104;-48
2021/12/17 07:28:25;;;;;;;15.85;15.65;;;3.50;99.90;;;;;;4159944;28;20556;-47
2021/12/17 07:35:13;;;;;;;17.50;17.20;;;3.50;99.90;;;;;;4153459;28;20040;-48
2021/12/17 07:39:15;;;;;;;16.45;16.05;;;3.60;99.90;;;;;;4160587;28;20046;-47
2021/12/17 07:41:18;;;;;;;17.85;17.40;;;3.70;99.90;;;;;;4162171;28;20037;-46
2021/12/17 07:43:27;;;;;;;17.65;17.27;;;3.60;99.90;;;;;;4162969;28;20112;-47
2021/12/17 07:45:29;;;;;;;23.67;22.40;;;3.60;99.90;;;;;;4161529;28;20493;-47
2021/12/17 07:47:31;;;;;;;16.13;15.82;;;3.90;99.90;;;;;;4157465;28;20049;-48
2021/12/17 07:49:34;;;;;;;12.35;12.13;;;3.90;99.90;;;;;;4162968;28;20540;-47
2021/12/17 07:51:36;;;;;;;13.63;13.23;;;3.90;99.90;;;;;;4155960;28;20054;-48
2021/12/17 07:53:39;;;;;;;;;;;3.80;99.90;;;;;;4163386;28;20551;-48
2021/12/17 07:55:41;;;;;;;9.75;9.32;;;3.80;99.90;;;;;;4162884;28;19921;-48
2021/12/17 07:57:43;;;;;;;9.75;9.20;;;3.90;99.90;;;;;;4160068;28;20552;-48
2021/12/17 07:59:45;;;;;;;9.48;9.27;;;3.90;99.90;;;;;;4152129;28;20108;-49
2021/12/17 08:01:47;;;;;;;7.80;7.70;;;4.10;99.90;;;;;;4161770;28;20091;-48
2021/12/17 08:03:49;;;;;;;8.23;8.02;;;4.40;99.90;;;;;;4152629;28;20053;-48
2021/12/17 08:05:53;;;;;;;7.82;7.53;;;4.60;99.90;;;;;;4158983;28;20056;-51
2021/12/17 08:07:56;;;;;;;6.90;6.80;;;5.20;99.90;;;;;;4161763;28;20079;-47
2021/12/17 08:09:59;;;;;;;6.88;6.68;;;5.40;99.90;;;;;;4158751;28;20045;-48
2021/12/17 08:12:01;;;;;;;7.13;7.03;;;5.50;99.90;;;;;;4161715;28;20552;-48
2021/12/17 08:14:07;;;;;;;7.18;6.97;;;5.50;99.90;;;;;;4160602;28;20044;-47
2021/12/17 08:18:48;;;;;;;7.22;7.03;;;5.70;99.90;;;;;;4158087;28;20092;-48
2021/12/17 08:25:28;;;;;;;19.73;16.38;;;6.70;99.90;;;;;;4160546;28;20394;-48
2021/12/17 08:28:01;;;;;;;5.25;5.15;;;6.20;99.90;;;;;;4156766;28;20465;-48
2021/12/17 08:31:58;;;;;;;;;;;6.40;99.90;;;;;;4157126;28;20043;-49
2021/12/17 08:34:02;;;;;;;14.32;13.10;;;6.40;99.90;;;;;;4152407;28;20023;-49
2021/12/17 08:36:05;;;;;;;11.68;11.00;;;6.30;99.90;;;;;;4163059;28;20042;-49
2021/12/17 08:38:08;;;;;;;3.35;3.25;;;6.20;99.90;;;;;;4159926;28;20045;-50
2021/12/17 08:40:10;;;;;;;4.63;4.53;;;6.60;99.90;;;;;;4163070;28;20042;-49
2021/12/17 08:42:12;;;;;;;4.60;4.50;;;6.60;99.90;;;;;;4157658;28;20034;-48
2021/12/17 08:44:15;;;;;;;8.30;8.10;;;6.60;99.90;;;;;;4157010;28;20100;-48
2021/12/17 08:46:17;;;;;;;4.95;4.85;;;6.60;99.90;;;;;;4168217;28;20079;-48
2021/12/17 08:48:19;;;;;;;5.15;5.05;;;6.50;99.90;;;;;;4162426;28;20041;-47
2021/12/17 08:50:21;;;;;;;7.60;7.05;;;6.50;99.90;;;;;;4160729;28;20038;-47
2021/12/17 08:52:23;;;;;;;6.90;6.80;;;6.40;99.90;;;;;;4165279;28;20094;-49
2021/12/17 08:54:26;;;;;;;5.25;5.15;;;6.20;99.90;;;;;;4166608;28;20402;-48
2021/12/17 08:56:33;;;;;;;4.05;3.95;;;6.30;99.90;;;;;;4163144;28;20099;-49
2021/12/17 08:58:35;;;;;;;5.03;4.93;;;6.40;99.90;;;;;;4150530;28;20045;-47
2021/12/17 09:00:38;;;;;;;5.72;5.53;;;6.40;99.90;;;;;;4161410;28;20029;-47
2021/12/17 09:02:41;;;;;;;5.15;5.05;;;6.40;99.90;;;;;;4148163;28;20045;-50
2021/12/17 09:04:44;;;;;;;4.90;4.72;;;6.30;99.90;;;;;;4162421;28;20065;-50
2021/12/17 09:06:46;;;;;;;5.22;5.13;;;6.40;99.90;;;;;;4148675;28;20061;-49
2021/12/17 09:08:49;;;;;;;5.13;4.93;;;6.60;99.90;;;;;;4161615;28;20044;-48
2021/12/17 09:10:55;;;;;;;3.90;3.90;;;6.70;99.90;;;;;;4163373;28;20140;-47
2021/12/17 09:12:57;;;;;;;5.57;5.38;;;7.00;99.90;;;;;;4163428;28;20030;-48
2021/12/17 09:14:59;;;;;;;7.28;6.78;;;7.10;99.90;;;;;;4161211;28;20041;-49
2021/12/17 09:17:02;;;;;;;6.18;5.97;;;7.20;99.90;;;;;;4165099;28;20091;-50
2021/12/17 09:19:07;;;;;;;4.40;4.20;;;7.30;99.90;;;;;;4157301;28;20049;-50
2021/12/17 09:21:09;;;;;;;6.97;6.70;;;7.60;99.90;;;;;;4164362;28;20100;-50
2021/12/17 09:23:11;;;;;;;4.82;4.68;;;7.60;99.90;;;;;;4158808;28;20046;-49
2021/12/17 09:25:14;;;;;;;5.28;4.95;;;7.60;99.90;;;;;;4164584;28;20095;-51
2021/12/17 09:27:17;;;;;;;5.15;4.95;;;7.70;99.90;;;;;;4162929;28;20045;-47
2021/12/17 09:29:19;;;;;;;4.60;4.50;;;7.70;99.90;;;;;;4163708;28;20096;-48
2021/12/17 09:31:21;;;;;;;6.13;5.35;;;7.70;99.90;;;;;;4165353;28;20499;-48
2021/12/17 09:33:23;;;;;;;5.72;5.28;;;7.80;99.90;;;;;;4162152;28;20038;-49
2021/12/17 09:35:25;;;;;;;4.90;4.53;;;7.90;99.90;;;;;;4164997;28;20103;-49
2021/12/17 09:37:27;;;;;;;4.57;4.38;;;8.10;99.90;;;;;;4162973;28;20044;-51
2021/12/17 09:39:29;;;;;;;5.07;4.50;;;8.50;99.90;;;;;;4154624;28;20069;-51
2021/12/17 09:41:32;;;;;;;8.82;7.47;;;8.60;99.90;;;;;;4162832;28;20050;-48
2021/12/17 09:43:36;;;;;;;9.80;8.57;;;8.60;99.90;;;;;;4164909;28;20099;-50
2021/12/17 09:45:38;;;;;;;5.25;5.03;;;8.80;99.90;;;;;;4161210;28;20057;-47
2021/12/17 09:47:41;;;;;;;4.40;4.30;;;8.80;99.90;;;;;;4165021;28;20456;-49
2021/12/17 09:49:43;;;;;;;4.75;4.50;;;8.70;99.90;;;;;;4163515;28;20091;-47
2021/12/17 09:51:47;;;;;;;12.65;9.15;;;8.80;99.90;;;;;;4164882;28;20041;-49
2021/12/17 09:53:49;;;;;;;6.03;5.60;;;8.80;99.90;;;;;;4162441;28;20096;-49
2021/12/17 09:55:51;;;;;;;4.40;4.20;;;8.80;99.90;;;;;;4150360;28;20100;-49
2021/12/17 09:57:54;;;;;;;5.22;4.93;;;8.80;99.90;;;;;;4158518;28;20037;-48
2021/12/17 09:59:56;;;;;;;5.95;4.97;;;8.90;99.90;;;;;;4166202;28;20107;-50
2021/12/17 10:01:58;;;;;;;4.97;4.68;;;9.00;99.90;;;;;;4161116;28;20041;-50
2021/12/17 10:04:17;;;;;;;3.50;3.38;;;9.00;99.90;;;;;;4153596;28;20052;-51
2021/12/17 10:06:23;;;;;;;4.30;4.10;;;9.20;99.90;;;;;;4161420;28;20053;-49
2021/12/17 10:08:25;;;;;;;2.90;2.80;;;9.60;99.90;;;;;;4163732;28;20124;-50
2021/12/17 10:10:48;;;;;;;6.40;6.03;;;9.80;99.90;;;;;;4162255;28;20053;-48
2021/12/17 10:13:04;;;;;;;4.05;3.85;;;9.70;99.90;;;;;;4149100;28;20038;-51
2021/12/17 10:15:17;;;;;;;4.60;4.40;;;9.60;99.90;;;;;;4163903;28;20033;-48
2021/12/17 10:17:19;;;;;;;2.60;2.40;;;9.60;99.90;;;;;;4158462;28;20128;-50
2021/12/17 10:19:53;;;;;;;3.55;3.35;;;9.60;99.90;;;;;;4163000;28;20041;-51
2021/12/17 10:22:09;;;;;;;3.72;3.50;;;9.80;99.90;;;;;;4161560;28;20037;-51
2021/12/17 10:24:23;;;;;;;4.38;4.18;;;9.90;99.90;;;;;;4163059;28;20509;-48
2021/12/17 10:26:27;;;;;;;2.60;2.50;;;10.00;99.90;;;;;;4162188;28;20189;-49
2021/12/17 10:28:30;;;;;;;3.35;3.25;;;10.10;99.90;;;;;;4162814;28;20057;-48
2021/12/17 10:30:35;;;;;;;2.85;2.65;;;10.10;99.90;;;;;;4159454;28;20041;-50
2021/12/17 10:32:41;;;;;;;3.25;3.10;;;10.20;99.90;;;;;;4163195;28;20037;-51
2021/12/17 10:35:10;;;;;;;3.13;2.90;;;10.30;99.90;;;;;;4155840;28;20112;-49
2021/12/17 10:37:40;;;;;;;1.95;1.85;;;10.40;99.90;;;;;;4149667;28;20903;-51
2021/12/17 10:39:42;;;;;;;2.35;2.25;;;10.60;99.90;;;;;;4159221;28;20045;-51
2021/12/17 10:41:53;;;;;;;1.95;1.55;;;10.80;99.90;;;;;;4167999;28;20040;-50
2021/12/17 10:44:07;;;;;;;3.53;1.70;;;10.90;99.90;;;;;;4160506;28;20045;-50
2021/12/17 10:46:32;;;;;;;1.88;1.77;;;11.30;99.90;;;;;;4159823;28;20567;-51
2021/12/17 10:51:29;;;;;;;2.90;2.60;;;11.70;99.90;;;;;;4161461;28;20042;-51
2021/12/17 10:53:31;;;;;;;2.33;2.22;;;11.70;99.90;;;;;;4161395;28;20104;-51
2021/12/17 10:55:33;;;;;;;5.32;5.03;;;11.80;99.90;;;;;;4158499;28;20042;-51
2021/12/17 10:57:35;;;;;;;5.40;5.10;;;11.70;99.90;;;;;;4163016;28;20434;-51
2021/12/17 10:59:37;;;;;;;4.15;3.67;;;11.80;99.90;;;;;;4159345;28;20579;-51
2021/12/17 11:01:45;;;;;;;4.00;3.80;;;12.10;99.90;;;;;;4163732;28;20048;-51
2021/12/17 11:03:47;;;;;;;2.05;2.05;;;12.20;99.90;;;;;;4159991;28;20045;-48
2021/12/17 11:05:49;;;;;;;1.13;1.13;;;12.60;99.90;;;;;;4163598;28;20084;-52
2021/12/17 11:07:52;;;;;;;2.45;2.35;;;12.90;99.90;;;;;;4163493;28;20863;-52
2021/12/17 11:10:01;;;;;;;6.38;5.80;;;13.20;99.90;;;;;;4160855;28;20124;-52
2021/12/17 11:12:26;;;;;;;7.07;6.57;;;13.10;99.80;;;;;;4159643;28;20111;-52
2021/12/17 11:14:29;;;;;;;2.20;2.00;;;13.00;99.60;;;;;;4159861;28;20080;-51
2021/12/17 11:16:46;;;;;;;2.72;2.63;;;13.10;99.90;;;;;;4159107;28;20040;-51
2021/12/17 11:18:56;;;;;;;2.97;2.85;;;13.00;99.90;;;;;;4160614;28;20061;-53
2021/12/17 11:20:59;;;;;;;1.58;1.58;;;13.30;98.90;;;;;;4159685;28;20061;-53
2021/12/17 11:23:07;;;;;;;1.10;1.10;;;13.40;98.30;;;;;;4162544;28;20033;-51
2021/12/17 11:25:10;;;;;;;1.90;1.80;;;13.30;96.60;;;;;;4156918;28;20075;-51
2021/12/17 11:27:13;;;;;;;2.10;2.00;;;13.70;97.90;;;;;;4155705;28;20064;-52
2021/12/17 11:29:15;;;;;;;;;;;13.70;97.60;;;;;;4160780;28;20037;-52
2021/12/17 11:31:18;;;;;;;1.35;1.25;;;14.00;96.10;;;;;;4163694;28;19921;-51
2021/12/17 11:33:20;;;;;;;1.08;1.08;;;13.90;96.70;;;;;;4158868;28;20048;-52
2021/12/17 11:35:34;;;;;;;1.40;1.40;;;13.50;95.60;;;;;;4162160;28;20056;-50
2021/12/17 11:37:41;;;;;;;1.15;1.15;;;13.70;95.30;;;;;;4155936;28;20040;-52
2021/12/17 11:40:08;;;;;;;1.30;1.30;;;13.80;95.70;;;;;;4160925;28;20049;-53
2021/12/17 11:42:18;;;;;;;1.00;1.00;;;14.10;96.50;;;;;;4156283;28;20042;-52
2021/12/17 11:44:39;;;;;;;1.00;1.00;;;13.80;94.90;;;;;;4160272;28;20053;-50
2021/12/17 11:46:41;;;;;;;1.20;1.20;;;13.50;95.70;;;;;;4157192;28;20038;-52
2021/12/17 11:49:11;;;;;;;1.27;1.27;;;13.30;95.20;;;;;;4159067;28;20052;-53
2021/12/17 11:51:16;;;;;;;1.00;1.00;;;13.40;94.60;;;;;;4158861;28;20053;-52
2021/12/17 11:53:24;;;;;;;1.02;1.00;;;13.80;94.20;;;;;;4150621;28;20831;-51
2021/12/17 11:55:33;;;;;;;0.90;0.90;;;14.10;93.70;;;;;;4157423;28;20383;-52
2021/12/17 11:57:42;;;;;;;1.00;1.00;;;14.10;94.10;;;;;;4164966;28;20049;-50
2021/12/17 11:59:55;;;;;;;1.00;1.00;;;14.60;94.80;;;;;;4161787;28;20040;-51
2021/12/17 12:02:19;;;;;;;1.10;1.10;;;14.60;94.00;;;;;;4156953;28;20067;-51
2021/12/17 12:04:24;;;;;;;1.20;1.20;;;14.50;95.00;;;;;;4160780;28;20520;-53
2021/12/17 12:06:34;;;;;;;1.00;1.00;;;14.60;94.20;;;;;;4156342;28;20136;-51
2021/12/17 12:08:49;;;;;;;0.93;0.93;;;14.70;94.20;;;;;;4157853;28;20092;-52
2021/12/17 12:11:13;;;;;;;1.80;1.00;;;14.70;93.00;;;;;;4151611;28;20045;-52
2021/12/17 12:13:34;;;;;;;1.00;1.00;;;14.50;93.50;;;;;;4161570;28;20045;-52
2021/12/17 12:15:37;;;;;;;1.33;0.90;;;14.50;94.60;;;;;;4160205;28;20095;-52
2021/12/17 12:17:58;;;;;;;1.50;0.90;;;14.50;94.00;;;;;;4161643;28;20552;-52
2021/12/17 12:20:00;;;;;;;0.90;0.90;;;14.60;93.30;;;;;;4156076;28;20033;-52
2021/12/17 12:22:08;;;;;;;5.07;3.15;;;14.70;93.60;;;;;;4153005;28;20529;-52
2021/12/17 12:24:13;;;;;;;2.80;2.70;;;14.70;93.80;;;;;;4156479;28;20045;-52
2021/12/17 12:26:22;;;;;;;5.32;5.13;;;14.90;93.60;;;;;;4162031;28;20056;-52
2021/12/17 12:28:49;;;;;;;1.42;1.00;;;15.10;94.30;;;;;;4160135;28;20045;-51
2021/12/17 12:30:55;;;;;;;0.90;0.90;;;15.10;93.00;;;;;;4158840;28;20416;-52
2021/12/17 12:33:05;;;;;;;1.17;1.17;;;14.60;92.50;;;;;;4160610;28;20044;-52
2021/12/17 12:35:08;;;;;;;5.75;5.65;;;14.60;92.90;;;;;;4158455;28;20041;-53
2021/12/17 12:37:24;;;;;;;1.38;1.00;;;14.60;93.00;;;;;;4159078;28;20501;-52
2021/12/17 12:40:06;;;;;;;2.63;2.63;;;14.70;93.30;;;;;;4155490;28;20048;-55
2021/12/17 12:42:19;;;;;;;2.03;1.92;;;14.90;93.20;;;;;;4160702;28;20041;-55
2021/12/17 12:44:39;;;;;;;2.55;2.35;;;14.90;92.70;;;;;;4156322;28;20428;-55
2021/12/17 12:46:54;;;;;;;1.00;1.00;;;14.80;91.80;;;;;;4158309;28;20049;-55
2021/12/17 12:48:57;;;;;;;0.80;0.80;;;14.90;93.20;;;;;;4163097;28;20041;-55
2021/12/17 12:51:21;;;;;;;0.80;0.80;;;14.80;91.70;;;;;;4157986;28;20046;-55
2021/12/17 12:53:29;;;;;;;0.90;0.90;;;14.70;91.60;;;;;;4162346;28;20084;-54
2021/12/17 12:55:37;;;;;;;0.90;0.90;;;14.80;92.60;;;;;;4166728;28;20049;-55
2021/12/17 12:57:42;;;;;;;0.82;0.80;;;14.90;92.20;;;;;;4159977;28;20088;-55
2021/12/17 12:59:49;;;;;;;0.90;0.90;;;14.90;90.60;;;;;;4162988;28;20103;-54
2021/12/17 13:01:51;;;;;;;1.40;1.00;;;14.90;90.60;;;;;;4164414;28;20379;-54
2021/12/17 13:03:53;;;;;;;2.65;2.03;;;14.80;90.10;;;;;;4164496;28;20045;-54
2021/12/17 13:05:59;;;;;;;1.00;1.00;;;14.70;90.30;;;;;;4162014;28;20072;-54
2021/12/17 13:08:05;;;;;;;3.05;1.00;;;14.70;90.30;;;;;;4161348;28;20132;-54
2021/12/17 13:10:12;;;;;;;0.90;0.90;;;14.60;89.70;;;;;;4162128;28;20050;-54
2021/12/17 13:12:15;;;;;;;1.25;0.80;;;14.50;88.90;;;;;;4166120;28;20095;-54
2021/12/17 13:14:19;;;;;;;0.80;0.80;;;14.50;89.50;;;;;;4163417;28;20095;-54
2021/12/17 13:23:13;;;;;;;2.45;1.00;;;15.10;88.20;;;;;;4161976;28;20044;-55
2021/12/17 13:25:35;;;;;;;0.90;0.90;;;15.40;88.70;;;;;;4149936;28;20050;-54
2021/12/17 13:27:50;;;;;;;0.80;0.80;;;15.00;85.40;;;;;;4165457;28;20460;-55
2021/12/17 13:29:53;;;;;;;1.25;1.25;;;14.90;88.30;;;;;;4151681;28;20045;-54
2021/12/17 13:32:00;;;;;;;1.17;0.90;;;15.20;87.70;;;;;;4161940;28;20100;-54
2021/12/17 13:34:10;;;;;;;1.35;0.90;;;15.40;88.30;;;;;;4156396;28;20564;-54
2021/12/17 13:36:13;;;;;;;1.10;1.10;;;15.50;85.40;;;;;;4163819;28;20064;-54
2021/12/17 13:38:15;;;;;;;1.00;1.00;;;15.60;82.20;;;;;;4160562;28;20045;-54
2021/12/17 13:40:23;;;;;;;1.25;1.10;;;15.80;85.40;;;;;;4165982;28;20604;-54
2021/12/17 13:42:28;;;;;;;0.90;0.90;;;15.60;82.20;;;;;;4156016;28;20037;-54
2021/12/17 13:44:41;;;;;;;1.00;1.00;;;15.40;80.90;;;;;;4163343;28;20091;-55
2021/12/17 13:46:43;;;;;;;0.90;0.90;;;15.60;75.20;;;;;;4163148;28;20493;-55
2021/12/17 13:48:46;;;;;;;1.08;1.08;;;15.60;74.70;;;;;;4163799;28;20038;-55
2021/12/17 13:50:50;;;;;;;;;;;15.60;76.30;;;;;;4158694;28;20038;-55